Share

Wray, GA (31798)

Baymeadows Lake (KGADOUGL11) Elev 256 ft | 31.45 °N, 82.91 °W | Change Station

Current weather conditions updated 18 seconds ago

Light Drizzle
Light Drizzle
56.3 °F
Feels Like 56.3 °F
N
5.4
Wind Variable Wind from North
Gusts 8.5 mph
Sunrise 6:58 AM
Sunset 8:04 PM
Moon Waning Gibbous

Today is forecast to be Warmer than yesterday.

Pressure 30.08 in
Visibility 5.0 miles
Clouds Overcast 500 ft
Dew Point 56 °F
Humidity 98%
Rainfall 0.00 in
Snow Depth Not available.
UV 0 out of 16
Pollen 5.50 out of 12
Air Quality Not available.
Flu Activity Sporadic
METAR KDQH 200415Z AUTO 03009KT 5SM -DZ OVC005 13/13 A3008 RMK AO2

More Conditions Fewer Conditions

Pressure 30.08 in
Visibility 5.0 miles
Clouds Overcast 500 ft
Dew Point 56 °F
Humidity 98%
Rainfall 0.00 in
Snow Depth Not available.
UV 0 out of 16
Pollen 5.50 out of 12
Air Quality Not available.
Flu Activity Sporadic
METAR KDQH 200415Z AUTO 03009KT 5SM -DZ OVC005 13/13 A3008 RMK AO2

More Conditions Fewer Conditions

10-Day Weather Forecast

Almanac

Astronomy

Apr. 20, 2014 Rise Set
Actual Time 6:58 AM EDT 8:04 PM EDT
Civil Twilight 6:33 AM EDT 8:29 PM EDT
Nautical Twilight 6:03 AM EDT 8:59 PM EDT
Astronomical Twilight 5:32 AM EDT 9:30 PM EDT
Moon 12:36 AM EDT 11:24 AM EDT
Length of Visible Light 13h 56m
Length of Day
13h 06m
Tomorrow will be 1m 46s longer.
Waning Gibbous, 74% of the Moon is Illuminated
Today
Waning Gibbous
Apr 22
Last Quarter
Apr 29
New
May 6
First Quarter
May 14
Full

Yesterday's Extremes

State Highs State Lows

Community

  • Sunny day at the coast-Cape Arago Lighthouse
    Sunny day at the coast-Cape Arago Lighthouse
  • Cherry Blossoms
    Cherry Blossoms
  • White-Crowned Sparrow
    White-Crowned Sparrow
  • New Day
    New Day
  • Happy Easter!
    Happy Easter!

WunderPhotos

Upload Photos

1,703,079 photos uploaded!

WunderBlogs® & News

Nearby

Snow Depth

Station Depth Elevation
No new snow has been reported.

Coastal Water Temperatures

Place Temperature
No Stations Reporting

Earthquake Activity

City Distance Mag. Time & Date
No recent earthquake activity has been reported nearby.
Minimum magnitude displayed is 2.5.

Nearby Weather Stations

Station Location Temp. Dew Point Humidity Wind Precip. Elev Updated Type
Baymeadows Lake, Douglas, GA 56.3 °F 56 °F 98% North  at  5.4 mph 0.00 in / hr 256 ft 12:28 AM EDT Rapid Fire
Douglas Golf Club Area, Douglas, GA 55.6 °F 55 °F 97% NNE  at  0.9 mph 0.01 in / hr 224 ft 12:26 AM EDT Rapid Fire
Jacksonville, GA 54.6 °F 54 °F 96% NNE  at  3.0 mph 0.00 in / hr 171 ft 12:16 AM EDT Normal
Forest Lakes, Tifton, GA 55.6 °F 54 °F 95% ENE  at  2.0 mph 0.00 in / hr 329 ft 12:25 AM EDT Normal

Show More Stations Show Fewer Stations

What do you think?

We're not finished. Please let us know what you like, what you don't like, and what you are still missing.